Time;durP1;ratioP1;P1;durP2;ratioP2;P2;SDS_P1;SDS_P2;PMS_P1;PMS_P2;Temp;Humidity;BMP_temperature;BMP_pressure;BME280_temperature;BME280_humidity;BME280_pressure;Samples;Min_cycle;Max_cycle;Signal;HPM_P1;HPM_P2
2022/03/03 00:00:26;;;;;;;51.58;29.42;;;2.80;99.90;;;;;;5090994;28;20047;-44
2022/03/03 00:02:52;;;;;;;56.38;30.73;;;2.70;99.90;;;;;;5091701;28;20043;-45
2022/03/03 00:05:18;;;;;;;58.30;32.15;;;2.70;99.90;;;;;;5091693;28;20050;-43
2022/03/03 00:07:44;;;;;;;59.47;32.85;;;2.70;99.90;;;;;;5091119;28;20382;-46
2022/03/03 00:10:10;;;;;;;60.90;30.60;;;2.60;99.90;;;;;;5091100;28;20036;-44
2022/03/03 00:12:37;;;;;;;58.78;30.02;;;2.70;99.90;;;;;;5091017;28;20040;-44
2022/03/03 00:15:05;;;;;;;55.38;32.13;;;2.70;99.90;;;;;;5091536;28;20071;-44
2022/03/03 00:17:30;;;;;;;55.97;31.45;;;2.70;99.90;;;;;;5091282;28;20114;-47
2022/03/03 00:19:56;;;;;;;60.13;32.33;;;2.60;99.90;;;;;;5090985;28;20493;-42
2022/03/03 00:22:22;;;;;;;59.63;32.20;;;2.60;99.90;;;;;;5090858;28;20560;-43
2022/03/03 00:24:49;;;;;;;58.95;31.83;;;2.60;99.90;;;;;;5091173;28;20036;-45
2022/03/03 00:27:15;;;;;;;55.40;31.38;;;2.50;99.90;;;;;;5090635;28;20097;-44
2022/03/03 00:29:40;;;;;;;58.35;32.55;;;2.60;99.90;;;;;;5090898;28;20031;-43
2022/03/03 00:32:06;;;;;;;59.95;31.85;;;2.70;99.90;;;;;;5089933;28;20051;-43
2022/03/03 00:34:32;;;;;;;59.92;32.47;;;2.50;99.90;;;;;;5089609;28;20505;-44
2022/03/03 00:36:58;;;;;;;58.67;31.92;;;2.50;99.90;;;;;;5090285;28;20115;-49
2022/03/03 00:39:24;;;;;;;60.05;31.42;;;2.50;99.90;;;;;;5090357;28;20028;-43
2022/03/03 00:41:50;;;;;;;56.78;32.03;;;2.40;99.90;;;;;;5090444;28;20492;-46
2022/03/03 00:44:16;;;;;;;61.15;32.13;;;2.40;99.90;;;;;;5089566;28;20039;-45
2022/03/03 00:46:42;;;;;;;59.22;32.83;;;2.40;99.90;;;;;;5090928;28;20040;-44
2022/03/03 00:49:08;;;;;;;60.25;32.30;;;2.20;99.90;;;;;;5090420;28;20069;-43
2022/03/03 00:51:34;;;;;;;59.42;31.40;;;2.40;99.90;;;;;;5090578;28;20043;-46
2022/03/03 00:54:00;;;;;;;58.72;32.38;;;2.30;99.90;;;;;;5090532;28;20028;-46
2022/03/03 00:56:26;;;;;;;55.97;31.40;;;2.20;99.90;;;;;;5089934;28;20487;-42
2022/03/03 00:58:51;;;;;;;56.65;31.88;;;2.20;99.90;;;;;;5090609;28;20084;-43
2022/03/03 01:01:17;;;;;;;60.90;32.88;;;2.20;99.90;;;;;;5090348;28;20566;-44
2022/03/03 01:03:43;;;;;;;58.03;32.15;;;2.30;99.90;;;;;;5090297;28;20028;-43
2022/03/03 01:06:10;;;;;;;58.08;32.17;;;2.20;99.90;;;;;;5090441;28;20383;-45
2022/03/03 01:08:36;;;;;;;58.13;32.35;;;2.10;99.90;;;;;;5090407;28;20128;-42
2022/03/03 01:11:03;;;;;;;57.28;31.25;;;2.20;99.90;;;;;;5090258;28;20101;-43
2022/03/03 01:13:28;;;;;;;58.50;33.25;;;2.10;99.90;;;;;;5089934;28;20028;-44
2022/03/03 01:15:54;;;;;;;58.13;31.35;;;2.10;99.90;;;;;;5090143;28;20566;-43
2022/03/03 01:18:20;;;;;;;61.03;32.15;;;2.10;99.90;;;;;;5090497;28;20032;-46
2022/03/03 01:20:46;;;;;;;55.80;31.73;;;2.10;99.90;;;;;;5089938;28;20036;-44
2022/03/03 01:23:12;;;;;;;58.80;32.15;;;2.00;99.90;;;;;;5087028;28;20452;-42
2022/03/03 01:25:38;;;;;;;58.38;32.40;;;2.00;99.90;;;;;;5086635;28;20103;-42
2022/03/03 01:28:04;;;;;;;56.38;30.52;;;2.00;99.90;;;;;;5085525;28;20514;-43
2022/03/03 01:30:30;;;;;;;61.03;32.47;;;2.00;99.90;;;;;;5086479;28;20070;-44
2022/03/03 01:32:55;;;;;;;58.28;31.33;;;2.00;99.90;;;;;;5086822;28;20040;-43
2022/03/03 01:35:21;;;;;;;56.00;31.08;;;1.90;99.90;;;;;;5085125;28;20479;-45
2022/03/03 01:37:47;;;;;;;53.78;31.27;;;1.90;99.90;;;;;;5086529;28;20075;-46
2022/03/03 01:40:13;;;;;;;56.33;30.40;;;1.90;99.90;;;;;;5086668;28;20043;-42
2022/03/03 01:42:39;;;;;;;60.65;32.63;;;1.90;99.90;;;;;;5085887;28;20043;-43
2022/03/03 01:45:05;;;;;;;57.75;31.00;;;1.90;99.90;;;;;;5085982;28;20047;-43
2022/03/03 01:47:31;;;;;;;58.28;32.20;;;1.80;99.90;;;;;;5086472;28;20060;-44
2022/03/03 01:49:58;;;;;;;53.97;30.60;;;1.80;99.90;;;;;;5088722;28;20036;-43
2022/03/03 01:52:24;;;;;;;57.22;31.38;;;1.80;99.90;;;;;;5089176;28;20050;-46
2022/03/03 01:54:51;;;;;;;52.45;30.55;;;1.70;99.90;;;;;;5090117;28;20038;-42
2022/03/03 01:57:18;;;;;;;55.50;32.47;;;1.80;99.90;;;;;;5088814;28;20471;-47
2022/03/03 01:59:45;;;;;;;60.63;32.00;;;1.70;99.90;;;;;;5089779;28;20043;-46
2022/03/03 02:02:11;;;;;;;55.88;31.08;;;1.70;99.90;;;;;;5089778;28;20494;-46
2022/03/03 02:04:38;;;;;;;57.50;30.67;;;1.50;99.90;;;;;;5090107;28;20036;-42
2022/03/03 02:07:05;;;;;;;55.45;30.65;;;1.60;99.90;;;;;;5087201;28;20086;-44
2022/03/03 02:09:31;;;;;;;54.10;31.52;;;1.60;99.90;;;;;;5089447;28;20123;-42
2022/03/03 02:11:57;;;;;;;58.30;31.85;;;1.50;99.90;;;;;;5092476;28;20079;-45
2022/03/03 02:14:23;;;;;;;57.92;30.73;;;1.40;99.90;;;;;;5093683;28;20078;-42
2022/03/03 02:16:48;;;;;;;53.65;30.20;;;1.60;99.90;;;;;;5093496;28;20045;-45
2022/03/03 02:19:17;;;;;;;57.22;31.23;;;1.50;99.90;;;;;;5093790;28;20068;-44
2022/03/03 02:21:49;;;;;;;54.60;29.35;;;1.50;99.90;;;;;;5091631;28;20052;-43
2022/03/03 02:24:15;;;;;;;55.30;30.08;;;1.40;99.90;;;;;;5092547;28;20036;-45
2022/03/03 02:26:42;;;;;;;62.20;31.70;;;1.40;99.90;;;;;;5092905;28;20062;-43
2022/03/03 02:29:07;;;;;;;53.13;30.23;;;1.40;99.90;;;;;;5091537;28;20044;-44
2022/03/03 02:31:33;;;;;;;53.83;30.08;;;1.30;99.90;;;;;;5093033;28;20420;-45
2022/03/03 02:33:59;;;;;;;55.70;30.58;;;1.30;99.90;;;;;;5092739;28;20070;-44
2022/03/03 02:36:29;;;;;;;59.22;31.38;;;1.20;99.90;;;;;;5093194;28;20074;-42
2022/03/03 02:39:00;;;;;;;51.05;29.30;;;1.40;99.90;;;;;;5093252;28;20665;-45
2022/03/03 02:41:26;;;;;;;53.72;31.00;;;1.40;99.90;;;;;;5093230;28;20036;-46
2022/03/03 02:43:53;;;;;;;55.78;30.35;;;1.30;99.90;;;;;;5092267;28;20040;-44
2022/03/03 02:46:19;;;;;;;57.60;29.85;;;1.20;99.90;;;;;;5093238;28;20040;-42
2022/03/03 02:48:44;;;;;;;52.42;29.42;;;1.20;99.90;;;;;;5092348;28;20097;-43
2022/03/03 02:51:10;;;;;;;51.05;29.20;;;1.20;99.90;;;;;;5092981;28;20036;-45
2022/03/03 02:53:36;;;;;;;54.40;29.60;;;1.20;99.90;;;;;;5091148;28;20478;-42
2022/03/03 02:56:04;;;;;;;52.63;28.73;;;1.20;99.90;;;;;;5092787;28;20028;-44
2022/03/03 02:58:29;;;;;;;54.65;30.50;;;1.10;99.90;;;;;;5090350;28;20513;-42
2022/03/03 03:00:56;;;;;;;53.67;29.33;;;1.10;99.90;;;;;;5092945;28;20083;-45
2022/03/03 03:03:22;;;;;;;56.65;29.58;;;1.10;99.90;;;;;;5092504;28;20305;-42
2022/03/03 03:05:48;;;;;;;54.22;29.95;;;1.10;99.90;;;;;;5092229;28;20043;-44
2022/03/03 03:08:14;;;;;;;49.25;28.80;;;1.00;99.90;;;;;;5092836;28;20046;-44
2022/03/03 03:10:41;;;;;;;50.05;29.67;;;1.00;99.90;;;;;;5091077;28;20476;-42
2022/03/03 03:13:08;;;;;;;51.33;28.90;;;1.00;99.90;;;;;;5091767;28;20169;-46
2022/03/03 03:15:34;;;;;;;54.28;29.92;;;0.90;99.90;;;;;;5092504;28;20044;-45
2022/03/03 03:18:17;;;;;;;49.70;27.70;;;1.00;99.90;;;;;;5092102;28;20036;-44
2022/03/03 03:20:46;;;;;;;52.92;28.92;;;0.90;99.90;;;;;;5091825;28;21405;-43
2022/03/03 03:23:14;;;;;;;53.38;29.13;;;0.90;99.90;;;;;;5090599;28;20051;-47
2022/03/03 03:25:43;;;;;;;51.63;28.60;;;0.90;99.90;;;;;;5092318;28;20032;-44
2022/03/03 03:28:10;;;;;;;53.10;30.25;;;0.80;99.90;;;;;;5092107;28;20032;-43
2022/03/03 03:30:36;;;;;;;49.22;28.85;;;0.80;99.90;;;;;;5091780;28;20048;-43
2022/03/03 03:33:02;;;;;;;45.78;26.63;;;0.80;99.90;;;;;;5091871;28;20043;-42
2022/03/03 03:35:28;;;;;;;49.47;27.95;;;0.80;99.90;;;;;;5092170;28;20417;-44
2022/03/03 03:37:54;;;;;;;47.92;27.23;;;0.70;99.90;;;;;;5090795;28;20085;-45
2022/03/03 03:40:19;;;;;;;46.95;26.55;;;0.60;99.90;;;;;;5091982;28;20025;-45
2022/03/03 03:42:46;;;;;;;50.28;28.90;;;0.70;99.90;;;;;;5090097;28;20073;-43
2022/03/03 03:45:12;;;;;;;51.63;28.35;;;0.80;99.90;;;;;;5091175;28;20036;-44
2022/03/03 03:47:39;;;;;;;54.50;28.50;;;0.60;99.90;;;;;;5091376;28;20036;-46
2022/03/03 03:50:10;;;;;;;51.17;27.85;;;0.70;99.90;;;;;;5091511;28;20031;-46
2022/03/03 03:52:37;;;;;;;52.67;27.98;;;0.60;99.90;;;;;;5091607;28;20275;-43
2022/03/03 03:55:07;;;;;;;49.47;27.45;;;0.60;99.90;;;;;;5091166;28;20039;-47
2022/03/03 03:57:33;;;;;;;47.72;27.10;;;0.60;99.90;;;;;;5091330;28;20047;-43
2022/03/03 03:59:59;;;;;;;47.47;27.38;;;0.60;99.90;;;;;;5090115;28;20039;-47
2022/03/03 04:02:25;;;;;;;45.72;26.23;;;0.60;99.90;;;;;;5091386;28;20479;-43
2022/03/03 04:04:51;;;;;;;51.30;26.67;;;0.50;99.90;;;;;;5091393;28;20044;-42
2022/03/03 04:07:18;;;;;;;49.58;28.63;;;0.50;99.90;;;;;;5091347;28;20120;-43
2022/03/03 04:09:44;;;;;;;46.90;27.98;;;0.50;99.90;;;;;;5091436;28;20048;-45
2022/03/03 04:12:10;;;;;;;47.30;27.92;;;0.50;99.90;;;;;;5089255;28;20040;-46
2022/03/03 04:14:36;;;;;;;47.95;27.48;;;0.60;99.90;;;;;;5091094;28;20081;-43
2022/03/03 04:17:02;;;;;;;44.88;25.55;;;0.50;99.90;;;;;;5091364;28;20036;-43
2022/03/03 04:19:28;;;;;;;45.00;27.10;;;0.50;99.90;;;;;;5091433;28;20110;-43
2022/03/03 04:21:54;;;;;;;47.30;26.88;;;0.50;99.90;;;;;;5090851;28;20130;-45
2022/03/03 04:24:20;;;;;;;49.13;26.88;;;0.40;99.90;;;;;;5090985;28;20131;-45
2022/03/03 04:26:45;;;;;;;47.72;27.27;;;0.50;99.90;;;;;;5091085;28;20058;-43
2022/03/03 04:29:11;;;;;;;46.85;27.13;;;0.50;99.90;;;;;;5091272;28;20119;-42
2022/03/03 04:31:37;;;;;;;47.78;27.98;;;0.40;99.90;;;;;;5071690;28;20604;-44
2022/03/03 04:34:03;;;;;;;48.22;27.15;;;0.50;99.90;;;;;;5091033;28;20471;-43
2022/03/03 04:36:28;;;;;;;46.08;27.15;;;0.40;99.90;;;;;;5089728;28;20032;-43
2022/03/03 04:38:54;;;;;;;46.05;25.80;;;0.30;99.90;;;;;;5090669;28;20166;-46
2022/03/03 04:41:20;;;;;;;45.45;26.92;;;0.40;99.90;;;;;;5090686;28;20390;-44
2022/03/03 04:43:46;;;;;;;45.60;26.27;;;0.30;99.90;;;;;;5090560;28;20058;-46
2022/03/03 04:46:12;;;;;;;52.92;27.25;;;0.40;99.90;;;;;;5090519;28;20040;-45
2022/03/03 04:48:38;;;;;;;44.70;25.40;;;0.30;99.90;;;;;;5090314;28;20383;-47
2022/03/03 04:51:04;;;;;;;43.65;26.02;;;0.20;99.90;;;;;;5090549;28;20039;-43
2022/03/03 04:53:30;;;;;;;46.20;26.88;;;0.30;99.90;;;;;;5090819;28;20032;-43
2022/03/03 04:55:57;;;;;;;45.33;25.58;;;0.20;99.90;;;;;;5090655;28;20092;-43
2022/03/03 04:58:23;;;;;;;44.97;26.27;;;0.20;99.90;;;;;;5090565;28;20035;-43
2022/03/03 05:00:49;;;;;;;45.05;26.73;;;0.30;99.90;;;;;;5089045;28;20622;-48
2022/03/03 05:03:15;;;;;;;46.40;25.67;;;0.20;99.90;;;;;;5088936;28;20071;-48
2022/03/03 05:05:41;;;;;;;40.67;25.08;;;0.20;99.90;;;;;;5088896;28;20048;-44
2022/03/03 05:08:07;;;;;;;43.85;25.52;;;0.10;99.90;;;;;;5088999;28;20425;-45
2022/03/03 05:10:32;;;;;;;42.50;24.13;;;0.20;99.90;;;;;;5089940;28;20044;-45
2022/03/03 05:12:58;;;;;;;46.97;26.15;;;0.20;99.90;;;;;;5089944;28;20067;-47
2022/03/03 05:15:24;;;;;;;42.85;25.23;;;0.20;99.90;;;;;;5087402;28;20551;-43
2022/03/03 05:17:50;;;;;;;44.65;26.63;;;0.10;99.90;;;;;;5090410;28;20395;-47
2022/03/03 05:20:16;;;;;;;45.20;27.42;;;0.20;99.90;;;;;;5090065;28;20036;-45
2022/03/03 05:22:41;;;;;;;44.35;25.58;;;0.20;99.90;;;;;;5089869;28;20093;-48
2022/03/03 05:25:10;;;;;;;41.00;25.45;;;0.20;99.90;;;;;;5090276;28;20040;-46
2022/03/03 05:27:36;;;;;;;42.95;25.55;;;0.20;99.90;;;;;;5090121;28;20036;-44
2022/03/03 05:30:03;;;;;;;42.55;25.83;;;0.10;99.90;;;;;;5090224;28;20075;-42
2022/03/03 05:32:29;;;;;;;45.08;25.55;;;0.10;99.90;;;;;;5090042;28;20097;-45
2022/03/03 05:34:55;;;;;;;44.53;26.17;;;0.10;99.90;;;;;;5090477;28;20068;-43
2022/03/03 05:37:25;;;;;;;45.20;25.05;;;0.00;99.90;;;;;;5089965;28;20059;-47
2022/03/03 05:39:52;;;;;;;43.08;25.33;;;0.00;99.90;;;;;;5090100;28;20459;-47
2022/03/03 05:42:20;;;;;;;44.78;25.73;;;0.00;99.90;;;;;;5089672;28;20120;-41
2022/03/03 05:44:47;;;;;;;43.67;25.15;;;0.00;99.90;;;;;;5093940;28;20698;-44
2022/03/03 05:47:13;;;;;;;43.03;25.67;;;0.00;99.90;;;;;;5093795;28;20110;-43
2022/03/03 05:49:43;;;;;;;41.83;25.83;;;-0.10;99.90;;;;;;5094065;28;20040;-41
2022/03/03 05:52:09;;;;;;;40.88;24.02;;;-0.10;99.90;;;;;;5094041;28;20494;-44
2022/03/03 05:54:38;;;;;;;45.60;26.65;;;-0.10;99.90;;;;;;5093893;28;20483;-45
2022/03/03 05:57:13;;;;;;;40.53;24.40;;;-0.10;99.90;;;;;;5093922;28;20069;-44
2022/03/03 05:59:41;;;;;;;43.53;25.55;;;-0.10;99.90;;;;;;5092881;28;20098;-42
2022/03/03 06:02:08;;;;;;;41.85;25.95;;;-0.10;99.90;;;;;;5093815;28;20048;-45
2022/03/03 06:04:37;;;;;;;40.42;24.38;;;-0.10;99.90;;;;;;5093800;28;20083;-42
2022/03/03 06:07:07;;;;;;;42.15;26.25;;;-0.10;99.90;;;;;;5093961;28;20047;-42
2022/03/03 06:09:35;;;;;;;47.38;26.23;;;-0.20;99.90;;;;;;5093688;28;20055;-44
2022/03/03 06:12:03;;;;;;;43.83;26.13;;;-0.10;99.90;;;;;;5093121;28;20040;-44
2022/03/03 06:14:40;;;;;;;41.70;25.77;;;-0.10;99.90;;;;;;5093651;28;20050;-42
2022/03/03 06:17:07;;;;;;;42.80;25.38;;;-0.20;99.90;;;;;;5093939;28;20382;-43
2022/03/03 06:19:39;;;;;;;41.13;25.55;;;-0.20;99.90;;;;;;5093461;28;20135;-43
2022/03/03 06:22:06;;;;;;;41.45;25.63;;;-0.20;99.90;;;;;;5093352;28;20362;-45
2022/03/03 06:24:32;;;;;;;42.30;24.63;;;-0.20;99.90;;;;;;5093397;28;20043;-48
2022/03/03 06:26:58;;;;;;;40.78;25.02;;;-0.20;99.90;;;;;;5092069;28;20074;-45
2022/03/03 06:29:24;;;;;;;41.25;25.55;;;-0.20;99.90;;;;;;5091831;28;20174;-43
2022/03/03 06:31:50;;;;;;;42.60;25.73;;;-0.20;99.90;;;;;;5091835;28;20047;-46
2022/03/03 06:34:15;;;;;;;44.08;24.90;;;-0.20;99.90;;;;;;5093545;28;20028;-42
2022/03/03 06:36:41;;;;;;;43.10;26.38;;;-0.20;99.90;;;;;;5093391;28;20063;-47
2022/03/03 06:39:07;;;;;;;40.55;24.58;;;-0.30;99.90;;;;;;5091679;28;20047;-43
2022/03/03 06:41:32;;;;;;;40.78;24.20;;;-0.30;99.90;;;;;;5093260;28;20036;-44
2022/03/03 06:43:58;;;;;;;43.33;25.33;;;-0.30;99.90;;;;;;5092938;28;20065;-46
2022/03/03 06:46:24;;;;;;;41.42;24.25;;;-0.30;99.90;;;;;;5092936;28;20043;-46
2022/03/03 06:48:50;;;;;;;41.33;25.25;;;-0.10;99.90;;;;;;5093013;28;20047;-45
2022/03/03 06:51:17;;;;;;;44.85;25.45;;;-0.20;99.90;;;;;;5089837;28;20035;-44
2022/03/03 06:53:46;;;;;;;42.30;25.67;;;-0.10;99.90;;;;;;5092583;28;20051;-48
2022/03/03 06:56:15;;;;;;;40.65;24.70;;;-0.10;99.90;;;;;;5092121;28;20483;-44
2022/03/03 06:58:41;;;;;;;40.60;24.88;;;0.00;99.90;;;;;;5093020;28;20093;-45
2022/03/03 07:01:12;;;;;;;39.75;24.65;;;-0.10;99.90;;;;;;5091877;28;20036;-42
2022/03/03 07:03:41;;;;;;;37.95;23.45;;;0.00;99.90;;;;;;5092558;28;20356;-44
2022/03/03 07:06:07;;;;;;;40.47;23.92;;;0.00;99.90;;;;;;5091682;28;20087;-43
2022/03/03 07:08:33;;;;;;;41.40;23.95;;;0.00;99.90;;;;;;5092844;28;20068;-45
2022/03/03 07:10:59;;;;;;;42.50;25.00;;;0.10;99.90;;;;;;5092467;28;20506;-44
2022/03/03 07:13:25;;;;;;;38.05;23.65;;;0.10;99.90;;;;;;5092023;28;20126;-44
2022/03/03 07:16:10;;;;;;;39.60;23.92;;;0.20;99.90;;;;;;5092476;28;20423;-43
2022/03/03 07:18:42;;;;;;;38.22;23.38;;;0.10;99.90;;;;;;5092367;28;20036;-44
2022/03/03 07:21:24;;;;;;;41.72;24.45;;;0.10;99.90;;;;;;5092449;28;20032;-43
2022/03/03 07:24:03;;;;;;;39.67;23.30;;;0.30;99.90;;;;;;5092627;28;20052;-44
2022/03/03 07:26:32;;;;;;;39.10;22.60;;;0.20;99.90;;;;;;5092332;28;20422;-50
2022/03/03 07:29:00;;;;;;;37.95;22.50;;;0.40;99.90;;;;;;5084298;28;20040;-44
2022/03/03 07:31:31;;;;;;;39.95;22.55;;;0.40;99.90;;;;;;5083082;28;20028;-45
2022/03/03 07:34:00;;;;;;;37.55;22.90;;;0.40;99.90;;;;;;5083592;28;20475;-42
2022/03/03 07:36:30;;;;;;;43.00;24.05;;;0.50;99.90;;;;;;5084010;28;20101;-42
2022/03/03 07:38:59;;;;;;;42.97;23.67;;;0.60;99.90;;;;;;5083369;28;20108;-43
2022/03/03 07:41:27;;;;;;;38.90;23.00;;;0.60;99.90;;;;;;5083794;28;20463;-42
2022/03/03 07:43:54;;;;;;;39.63;22.77;;;0.70;99.90;;;;;;5083698;28;20032;-43
2022/03/03 07:46:20;;;;;;;46.42;25.33;;;0.70;99.90;;;;;;5082511;28;20032;-44
2022/03/03 07:48:46;;;;;;;44.95;25.60;;;0.80;99.90;;;;;;5082479;28;20139;-44
2022/03/03 07:51:13;;;;;;;44.38;24.95;;;0.80;99.90;;;;;;5082049;28;20036;-42
2022/03/03 07:53:39;;;;;;;43.53;23.80;;;0.90;99.90;;;;;;5073858;28;20036;-44
2022/03/03 07:56:07;;;;;;;39.75;22.42;;;1.00;99.90;;;;;;5083462;28;20032;-43
2022/03/03 07:58:41;;;;;;;42.78;23.17;;;1.00;99.90;;;;;;5084202;28;20040;-47
2022/03/03 08:01:10;;;;;;;45.40;25.65;;;1.10;99.90;;;;;;5083524;28;20036;-47
2022/03/03 08:03:42;;;;;;;45.78;25.27;;;1.30;99.90;;;;;;5081748;28;21092;-44
2022/03/03 08:06:09;;;;;;;40.38;24.38;;;1.40;99.90;;;;;;5081413;28;20039;-45
2022/03/03 08:08:35;;;;;;;39.65;24.00;;;1.50;99.90;;;;;;5075750;28;20082;-46
2022/03/03 08:11:07;;;;;;;39.88;23.23;;;1.60;99.90;;;;;;5091507;28;20127;-45
2022/03/03 08:13:33;;;;;;;38.97;21.58;;;1.70;99.90;;;;;;5090978;28;20036;-44
2022/03/03 08:16:00;;;;;;;41.17;23.98;;;1.80;99.90;;;;;;5091588;28;20035;-47
2022/03/03 08:18:29;;;;;;;40.65;23.60;;;1.80;99.90;;;;;;5091058;28;20028;-45
2022/03/03 08:20:56;;;;;;;40.15;22.90;;;1.90;99.90;;;;;;5091036;28;20048;-45
2022/03/03 08:23:25;;;;;;;39.97;23.77;;;2.00;99.90;;;;;;5091072;28;20105;-47
2022/03/03 08:25:54;;;;;;;38.13;22.42;;;2.10;99.90;;;;;;5091008;28;20503;-44
2022/03/03 08:28:23;;;;;;;36.67;21.77;;;2.20;99.90;;;;;;5091169;28;20084;-46
2022/03/03 08:30:56;;;;;;;34.83;21.73;;;2.30;99.90;;;;;;5090717;28;20048;-44
2022/03/03 08:33:32;;;;;;;35.63;21.92;;;2.40;99.90;;;;;;5088991;28;20035;-45
2022/03/03 08:36:00;;;;;;;38.17;21.92;;;2.50;99.90;;;;;;5090788;28;20151;-45
2022/03/03 08:38:34;;;;;;;37.65;22.38;;;2.60;99.90;;;;;;5090437;28;20494;-45
2022/03/03 08:41:01;;;;;;;37.90;21.48;;;2.80;99.90;;;;;;5090643;28;20097;-45
2022/03/03 08:43:31;;;;;;;37.90;22.10;;;2.80;99.90;;;;;;5090150;28;20380;-43
2022/03/03 08:46:03;;;;;;;36.40;22.30;;;2.90;99.90;;;;;;5091010;28;20543;-42
2022/03/03 08:48:32;;;;;;;38.35;21.58;;;2.90;99.90;;;;;;5090633;28;20494;-44
2022/03/03 08:51:00;;;;;;;37.10;22.20;;;3.10;99.90;;;;;;5090462;28;20171;-44
2022/03/03 08:53:26;;;;;;;36.10;21.77;;;3.30;99.90;;;;;;5090505;28;20072;-45
2022/03/03 08:55:55;;;;;;;35.28;20.35;;;3.30;99.90;;;;;;5090578;28;20086;-43
2022/03/03 08:58:21;;;;;;;35.10;20.50;;;3.40;99.90;;;;;;5090516;28;20502;-46
2022/03/03 09:00:48;;;;;;;37.88;21.00;;;3.60;99.90;;;;;;5090200;28;20123;-42
2022/03/03 09:03:15;;;;;;;33.10;20.40;;;3.70;99.90;;;;;;5088033;28;20487;-43
2022/03/03 09:05:41;;;;;;;33.50;19.92;;;3.90;99.90;;;;;;5086549;28;20040;-43
2022/03/03 09:08:07;;;;;;;34.33;20.27;;;4.00;99.90;;;;;;5086724;28;20470;-44
2022/03/03 09:10:33;;;;;;;32.60;19.58;;;4.10;99.90;;;;;;5085344;28;20098;-44
2022/03/03 09:13:00;;;;;;;33.63;20.13;;;4.20;99.90;;;;;;5085339;28;20035;-46
2022/03/03 09:15:30;;;;;;;32.45;19.95;;;4.30;99.90;;;;;;5088591;28;20040;-42
2022/03/03 09:17:56;;;;;;;31.15;18.27;;;4.30;99.90;;;;;;5085876;28;20044;-47
2022/03/03 09:20:22;;;;;;;31.33;18.20;;;4.60;99.90;;;;;;5090165;28;20491;-44
2022/03/03 09:22:48;;;;;;;30.83;18.05;;;4.70;99.90;;;;;;5089700;28;20048;-43
2022/03/03 09:25:14;;;;;;;31.67;20.40;;;4.80;99.90;;;;;;5090261;28;20455;-42
2022/03/03 09:27:40;;;;;;;31.40;19.10;;;4.80;99.90;;;;;;5088572;28;20529;-44
2022/03/03 09:30:08;;;;;;;26.80;17.77;;;5.10;99.90;;;;;;5089725;28;20495;-45
2022/03/03 09:32:33;;;;;;;30.33;17.73;;;5.10;99.90;;;;;;5089471;28;20079;-42
2022/03/03 09:34:59;;;;;;;26.67;16.88;;;5.20;99.90;;;;;;5087835;28;20055;-43
2022/03/03 09:37:25;;;;;;;29.33;17.40;;;5.40;99.90;;;;;;5089551;28;20402;-42
2022/03/03 09:39:51;;;;;;;28.05;17.98;;;5.40;99.90;;;;;;5089797;28;20067;-52
2022/03/03 09:42:17;;;;;;;27.70;17.27;;;5.60;99.90;;;;;;5089585;28;20423;-43
2022/03/03 09:44:43;;;;;;;25.40;16.55;;;5.60;99.90;;;;;;5089944;28;20064;-45
2022/03/03 09:47:11;;;;;;;25.55;16.23;;;5.70;99.90;;;;;;5089786;28;20439;-43
2022/03/03 09:49:37;;;;;;;30.00;17.05;;;5.90;99.90;;;;;;5089914;28;20095;-43
2022/03/03 09:52:15;;;;;;;22.63;15.32;;;5.90;99.90;;;;;;5089854;28;20048;-44
2022/03/03 09:54:42;;;;;;;26.67;16.52;;;6.00;99.90;;;;;;5089803;28;20043;-44
2022/03/03 09:57:08;;;;;;;26.60;17.27;;;6.30;99.90;;;;;;5070997;28;20043;-44
2022/03/03 09:59:34;;;;;;;24.67;15.48;;;6.20;99.90;;;;;;5090058;28;20059;-44
2022/03/03 10:02:05;;;;;;;25.88;15.68;;;6.30;99.90;;;;;;5090011;28;20035;-42
2022/03/03 10:04:31;;;;;;;26.98;16.92;;;6.40;99.90;;;;;;5089789;28;20051;-43
2022/03/03 10:07:09;;;;;;;29.73;16.77;;;6.40;99.90;;;;;;5090150;28;20596;-44
2022/03/03 10:09:59;;;;;;;26.65;16.25;;;6.50;99.90;;;;;;5089715;28;20043;-46
2022/03/03 10:12:22;;;;;;;26.50;15.65;;;6.50;99.90;;;;;;5089207;28;20071;-41
2022/03/03 10:14:49;;;;;;;25.90;15.45;;;6.70;99.90;;;;;;5089682;28;20040;-48
2022/03/03 10:17:16;;;;;;;27.33;16.42;;;6.70;99.90;;;;;;5088033;28;20056;-45
2022/03/03 10:19:56;;;;;;;23.67;15.55;;;6.80;99.90;;;;;;5089500;28;20402;-47
2022/03/03 10:22:39;;;;;;;27.00;15.50;;;6.80;99.90;;;;;;5089425;28;20052;-45
2022/03/03 10:25:06;;;;;;;21.25;13.65;;;6.80;99.90;;;;;;5089729;28;20036;-43
2022/03/03 10:27:33;;;;;;;22.77;14.85;;;6.90;99.90;;;;;;5089698;28;20051;-44
2022/03/03 10:29:59;;;;;;;22.80;14.77;;;6.90;99.90;;;;;;5090720;28;20035;-45
2022/03/03 10:32:25;;;;;;;23.55;14.85;;;7.00;99.90;;;;;;5092882;28;20522;-43
2022/03/03 10:34:53;;;;;;;22.33;14.95;;;7.10;99.90;;;;;;5093062;28;20035;-46
2022/03/03 10:37:23;;;;;;;24.77;14.90;;;7.20;99.90;;;;;;5093190;28;20036;-44
2022/03/03 10:39:58;;;;;;;25.05;15.13;;;7.30;99.90;;;;;;5092850;28;20109;-45
2022/03/03 10:42:25;;;;;;;27.98;15.18;;;7.50;99.90;;;;;;5092883;28;20051;-45
2022/03/03 10:45:08;;;;;;;20.63;13.65;;;7.60;99.90;;;;;;5093438;28;20456;-44
2022/03/03 10:47:34;;;;;;;23.75;14.75;;;7.80;99.90;;;;;;5092853;28;20089;-48
2022/03/03 10:50:00;;;;;;;23.48;14.57;;;7.90;99.90;;;;;;5091075;28;20075;-47
2022/03/03 10:52:33;;;;;;;22.00;13.57;;;8.20;99.90;;;;;;5092836;28;20184;-47
2022/03/03 10:55:05;;;;;;;19.98;13.02;;;8.30;99.90;;;;;;5093283;28;20043;-45
2022/03/03 10:57:33;;;;;;;21.52;13.13;;;8.50;99.90;;;;;;5092906;28;20036;-44
2022/03/03 11:00:01;;;;;;;18.70;13.05;;;8.50;99.90;;;;;;5093077;28;20547;-43
2022/03/03 11:02:28;;;;;;;18.75;12.98;;;8.40;99.50;;;;;;5092306;28;20081;-44
2022/03/03 11:04:57;;;;;;;19.90;13.20;;;8.50;98.60;;;;;;5092260;28;20036;-49
2022/03/03 11:07:23;;;;;;;20.30;13.63;;;8.60;99.30;;;;;;5092719;28;20042;-43
2022/03/03 11:09:50;;;;;;;20.95;13.85;;;8.70;99.90;;;;;;5092157;28;20047;-43
2022/03/03 11:12:16;;;;;;;20.75;14.38;;;8.80;99.90;;;;;;5092095;28;20024;-45
2022/03/03 11:14:43;;;;;;;21.67;13.70;;;8.90;99.90;;;;;;5092431;28;20040;-45
2022/03/03 11:17:10;;;;;;;18.98;13.13;;;8.90;99.80;;;;;;5091867;28;20028;-45
2022/03/03 11:19:38;;;;;;;20.35;14.18;;;9.20;99.30;;;;;;5092550;28;20036;-45
2022/03/03 11:22:04;;;;;;;19.55;13.63;;;9.20;99.90;;;;;;5091961;28;20075;-48
2022/03/03 11:24:32;;;;;;;20.02;13.95;;;9.30;99.90;;;;;;5092316;28;20040;-47
2022/03/03 11:27:00;;;;;;;20.98;13.70;;;9.40;99.30;;;;;;5092186;28;20044;-47
2022/03/03 11:29:27;;;;;;;20.25;13.40;;;9.50;98.90;;;;;;5092197;28;20043;-46
2022/03/03 11:32:07;;;;;;;20.38;13.07;;;9.60;97.00;;;;;;5092146;28;20052;-46
2022/03/03 11:34:40;;;;;;;18.52;12.43;;;9.80;96.00;;;;;;5091576;28;20118;-44
2022/03/03 11:37:19;;;;;;;20.65;13.57;;;9.80;94.40;;;;;;5091948;28;20036;-46
2022/03/03 11:40:00;;;;;;;15.85;11.63;;;10.10;97.40;;;;;;5092198;28;20407;-44
2022/03/03 11:42:36;;;;;;;16.92;11.43;;;10.40;92.80;;;;;;5090017;28;20437;-45
2022/03/03 11:45:13;;;;;;;20.20;12.90;;;10.60;91.70;;;;;;5092287;28;20129;-47
2022/03/03 11:47:47;;;;;;;15.73;11.30;;;10.80;86.30;;;;;;5091778;28;20044;-46
2022/03/03 11:50:28;;;;;;;16.35;11.88;;;10.90;88.70;;;;;;5091743;28;20048;-50
2022/03/03 11:52:59;;;;;;;18.27;11.32;;;11.10;80.80;;;;;;5091870;28;20368;-44
2022/03/03 11:55:43;;;;;;;15.38;10.77;;;11.00;73.90;;;;;;5091881;28;20544;-44
2022/03/03 11:58:28;;;;;;;15.63;11.48;;;11.00;73.30;;;;;;5090191;28;20035;-49
2022/03/03 12:01:03;;;;;;;16.48;11.23;;;11.40;84.80;;;;;;5091687;28;20032;-43
2022/03/03 12:03:29;;;;;;;18.35;12.85;;;11.50;73.20;;;;;;5091658;28;20502;-45
2022/03/03 12:06:08;;;;;;;17.85;11.13;;;11.60;77.60;;;;;;5091350;28;20083;-44
2022/03/03 12:08:38;;;;;;;16.83;11.52;;;11.60;72.20;;;;;;5084918;28;20494;-44
2022/03/03 12:11:07;;;;;;;19.10;12.07;;;11.60;74.10;;;;;;5087862;28;20034;-44
2022/03/03 12:13:39;;;;;;;18.48;12.45;;;11.90;74.70;;;;;;5087507;28;20070;-49
2022/03/03 12:16:30;;;;;;;17.20;12.32;;;12.00;78.50;;;;;;5091904;28;20089;-45
2022/03/03 12:18:55;;;;;;;18.27;12.05;;;12.10;77.50;;;;;;5091782;28;20512;-45
2022/03/03 12:21:33;;;;;;;17.23;11.90;;;12.20;73.20;;;;;;5087886;28;20068;-42
2022/03/03 12:24:14;;;;;;;17.73;12.77;;;12.00;70.20;;;;;;5088353;28;20044;-46
2022/03/03 12:27:01;;;;;;;18.63;12.25;;;12.30;76.40;;;;;;5076068;28;20047;-46
2022/03/03 12:30:00;;;;;;;20.17;12.07;;;12.50;74.50;;;;;;5084101;28;20040;-47
2022/03/03 12:32:30;;;;;;;16.98;11.88;;;12.40;75.20;;;;;;5087932;28;20067;-45
2022/03/03 12:35:02;;;;;;;17.48;11.60;;;12.70;77.10;;;;;;5088699;28;20371;-45
2022/03/03 12:37:30;;;;;;;15.68;10.88;;;12.60;76.30;;;;;;5090589;28;20092;-48
2022/03/03 12:40:03;;;;;;;15.10;10.77;;;12.70;72.10;;;;;;5089518;28;20070;-46